sensor_id;sensor_type;location;lat;lon;timestamp;P1;durP1;ratioP1;P2;durP2;ratioP2
69854;SDS011;57146;48.140;16.304;2023-02-03T00:02:11;3.65;;;0.52;;
69854;SDS011;57146;48.140;16.304;2023-02-03T00:04:37;3.93;;;0.50;;
69854;SDS011;57146;48.140;16.304;2023-02-03T00:07:32;3.38;;;0.50;;
69854;SDS011;57146;48.140;16.304;2023-02-03T00:09:59;6.03;;;0.70;;
69854;SDS011;57146;48.140;16.304;2023-02-03T00:12:26;2.92;;;0.43;;
69854;SDS011;57146;48.140;16.304;2023-02-03T00:14:53;3.33;;;0.55;;
69854;SDS011;57146;48.140;16.304;2023-02-03T00:17:22;4.20;;;0.37;;
69854;SDS011;57146;48.140;16.304;2023-02-03T00:19:48;4.80;;;0.50;;
69854;SDS011;57146;48.140;16.304;2023-02-03T00:22:18;2.83;;;0.60;;
69854;SDS011;57146;48.140;16.304;2023-02-03T00:24:44;4.70;;;0.85;;
69854;SDS011;57146;48.140;16.304;2023-02-03T00:27:15;4.65;;;0.68;;
69854;SDS011;57146;48.140;16.304;2023-02-03T00:30:08;4.83;;;0.73;;
69854;SDS011;57146;48.140;16.304;2023-02-03T00:32:36;5.82;;;0.77;;
69854;SDS011;57146;48.140;16.304;2023-02-03T00:35:04;4.40;;;0.80;;
69854;SDS011;57146;48.140;16.304;2023-02-03T00:37:35;4.13;;;0.75;;
69854;SDS011;57146;48.140;16.304;2023-02-03T00:40:02;4.07;;;0.85;;
69854;SDS011;57146;48.140;16.304;2023-02-03T00:42:29;3.20;;;0.60;;
69854;SDS011;57146;48.140;16.304;2023-02-03T00:44:56;3.63;;;0.80;;
69854;SDS011;57146;48.140;16.304;2023-02-03T00:47:23;5.30;;;0.90;;
69854;SDS011;57146;48.140;16.304;2023-02-03T00:49:56;3.35;;;0.60;;
69854;SDS011;57146;48.140;16.304;2023-02-03T00:52:23;3.03;;;0.50;;
69854;SDS011;57146;48.140;16.304;2023-02-03T00:54:52;3.30;;;0.70;;
69854;SDS011;57146;48.140;16.304;2023-02-03T00:57:44;2.90;;;0.60;;
69854;SDS011;57146;48.140;16.304;2023-02-03T01:00:13;2.75;;;0.50;;
69854;SDS011;57146;48.140;16.304;2023-02-03T01:02:40;2.67;;;0.50;;
69854;SDS011;57146;48.140;16.304;2023-02-03T01:05:12;3.50;;;0.52;;
69854;SDS011;57146;48.140;16.304;2023-02-03T01:07:41;2.57;;;0.50;;
69854;SDS011;57146;48.140;16.304;2023-02-03T01:10:08;4.53;;;0.70;;
69854;SDS011;57146;48.140;16.304;2023-02-03T01:12:35;2.85;;;0.47;;
69854;SDS011;57146;48.140;16.304;2023-02-03T01:15:02;2.75;;;0.45;;
69854;SDS011;57146;48.140;16.304;2023-02-03T01:17:29;2.90;;;0.40;;
69854;SDS011;57146;48.140;16.304;2023-02-03T01:19:56;3.57;;;0.57;;
69854;SDS011;57146;48.140;16.304;2023-02-03T01:22:28;3.05;;;0.50;;
69854;SDS011;57146;48.140;16.304;2023-02-03T01:24:56;3.28;;;0.40;;
69854;SDS011;57146;48.140;16.304;2023-02-03T01:27:26;4.53;;;0.40;;
69854;SDS011;57146;48.140;16.304;2023-02-03T01:29:54;3.60;;;0.50;;
69854;SDS011;57146;48.140;16.304;2023-02-03T01:32:24;3.60;;;0.40;;
69854;SDS011;57146;48.140;16.304;2023-02-03T01:34:51;3.00;;;0.30;;
69854;SDS011;57146;48.140;16.304;2023-02-03T01:37:18;2.55;;;0.22;;
69854;SDS011;57146;48.140;16.304;2023-02-03T01:40:09;3.47;;;0.38;;
69854;SDS011;57146;48.140;16.304;2023-02-03T01:42:37;3.55;;;0.40;;
69854;SDS011;57146;48.140;16.304;2023-02-03T01:45:04;2.33;;;0.30;;
69854;SDS011;57146;48.140;16.304;2023-02-03T01:47:33;3.92;;;0.30;;
69854;SDS011;57146;48.140;16.304;2023-02-03T01:52:51;2.30;;;0.20;;
69854;SDS011;57146;48.140;16.304;2023-02-03T01:55:24;3.55;;;0.20;;
69854;SDS011;57146;48.140;16.304;2023-02-03T01:58:02;2.60;;;0.37;;
69854;SDS011;57146;48.140;16.304;2023-02-03T02:00:52;1.77;;;0.10;;
69854;SDS011;57146;48.140;16.304;2023-02-03T02:03:22;1.60;;;0.00;;
69854;SDS011;57146;48.140;16.304;2023-02-03T02:06:06;2.33;;;0.00;;
69854;SDS011;57146;48.140;16.304;2023-02-03T02:08:35;1.05;;;0.00;;
69854;SDS011;57146;48.140;16.304;2023-02-03T02:11:04;1.30;;;0.00;;
69854;SDS011;57146;48.140;16.304;2023-02-03T02:13:33;1.85;;;0.10;;
69854;SDS011;57146;48.140;16.304;2023-02-03T02:16:11;2.22;;;0.00;;
69854;SDS011;57146;48.140;16.304;2023-02-03T02:41:27;1.95;;;0.00;;
69854;SDS011;57146;48.140;16.304;2023-02-03T02:43:46;2.25;;;0.00;;
69854;SDS011;57146;48.140;16.304;2023-02-03T02:46:24;0.57;;;0.00;;
69854;SDS011;57146;48.140;16.304;2023-02-03T02:49:08;0.75;;;0.00;;
69854;SDS011;57146;48.140;16.304;2023-02-03T02:51:42;0.80;;;0.00;;
69854;SDS011;57146;48.140;16.304;2023-02-03T02:54:11;0.47;;;0.00;;
69854;SDS011;57146;48.140;16.304;2023-02-03T02:56:42;0.70;;;0.00;;
69854;SDS011;57146;48.140;16.304;2023-02-03T02:59:14;0.70;;;0.00;;
69854;SDS011;57146;48.140;16.304;2023-02-03T03:01:41;0.80;;;0.00;;
69854;SDS011;57146;48.140;16.304;2023-02-03T03:04:11;0.97;;;0.00;;
69854;SDS011;57146;48.140;16.304;2023-02-03T03:06:44;0.40;;;0.00;;
69854;SDS011;57146;48.140;16.304;2023-02-03T03:09:15;0.60;;;0.00;;
69854;SDS011;57146;48.140;16.304;2023-02-03T03:11:46;1.45;;;0.00;;
69854;SDS011;57146;48.140;16.304;2023-02-03T03:14:19;1.15;;;0.00;;
69854;SDS011;57146;48.140;16.304;2023-02-03T03:16:51;2.10;;;0.00;;
69854;SDS011;57146;48.140;16.304;2023-02-03T03:19:24;1.48;;;0.00;;
69854;SDS011;57146;48.140;16.304;2023-02-03T03:21:58;1.08;;;0.00;;
69854;SDS011;57146;48.140;16.304;2023-02-03T03:24:31;0.43;;;0.00;;
69854;SDS011;57146;48.140;16.304;2023-02-03T03:27:09;0.90;;;0.00;;
69854;SDS011;57146;48.140;16.304;2023-02-03T03:30:05;1.40;;;0.00;;
69854;SDS011;57146;48.140;16.304;2023-02-03T03:32:42;0.88;;;0.10;;
69854;SDS011;57146;48.140;16.304;2023-02-03T03:35:10;1.20;;;0.00;;
69854;SDS011;57146;48.140;16.304;2023-02-03T03:37:46;0.98;;;0.00;;
69854;SDS011;57146;48.140;16.304;2023-02-03T03:40:32;1.55;;;0.00;;
69854;SDS011;57146;48.140;16.304;2023-02-03T03:43:07;0.30;;;0.00;;
69854;SDS011;57146;48.140;16.304;2023-02-03T03:45:46;0.30;;;0.00;;
69854;SDS011;57146;48.140;16.304;2023-02-03T03:51:11;0.43;;;0.00;;
69854;SDS011;57146;48.140;16.304;2023-02-03T03:53:46;0.10;;;0.00;;
69854;SDS011;57146;48.140;16.304;2023-02-03T03:56:18;0.40;;;0.00;;
69854;SDS011;57146;48.140;16.304;2023-02-03T03:58:51;0.47;;;0.00;;
69854;SDS011;57146;48.140;16.304;2023-02-03T04:01:19;0.00;;;0.00;;
69854;SDS011;57146;48.140;16.304;2023-02-03T04:03:49;0.30;;;0.00;;
69854;SDS011;57146;48.140;16.304;2023-02-03T04:06:22;0.40;;;0.00;;
69854;SDS011;57146;48.140;16.304;2023-02-03T04:08:49;0.27;;;0.00;;
69854;SDS011;57146;48.140;16.304;2023-02-03T04:11:16;1.10;;;0.00;;
69854;SDS011;57146;48.140;16.304;2023-02-03T04:13:43;0.20;;;0.00;;
69854;SDS011;57146;48.140;16.304;2023-02-03T04:16:11;0.20;;;0.00;;
69854;SDS011;57146;48.140;16.304;2023-02-03T04:18:38;0.40;;;0.00;;
69854;SDS011;57146;48.140;16.304;2023-02-03T04:21:06;0.43;;;0.00;;
69854;SDS011;57146;48.140;16.304;2023-02-03T04:23:33;0.00;;;0.00;;
69854;SDS011;57146;48.140;16.304;2023-02-03T04:25:59;0.00;;;0.00;;
69854;SDS011;57146;48.140;16.304;2023-02-03T04:28:27;0.10;;;0.00;;
69854;SDS011;57146;48.140;16.304;2023-02-03T04:30:54;0.00;;;0.00;;
69854;SDS011;57146;48.140;16.304;2023-02-03T04:33:21;0.00;;;0.00;;
69854;SDS011;57146;48.140;16.304;2023-02-03T04:35:47;0.10;;;0.00;;
69854;SDS011;57146;48.140;16.304;2023-02-03T04:38:14;0.20;;;0.00;;
69854;SDS011;57146;48.140;16.304;2023-02-03T04:41:05;0.10;;;0.00;;
69854;SDS011;57146;48.140;16.304;2023-02-03T04:43:34;1.15;;;0.00;;
69854;SDS011;57146;48.140;16.304;2023-02-03T04:46:02;1.13;;;0.00;;
69854;SDS011;57146;48.140;16.304;2023-02-03T04:48:29;0.80;;;0.00;;
69854;SDS011;57146;48.140;16.304;2023-02-03T04:51:00;0.10;;;0.00;;
69854;SDS011;57146;48.140;16.304;2023-02-03T04:53:29;0.63;;;0.00;;
69854;SDS011;57146;48.140;16.304;2023-02-03T04:55:57;0.30;;;0.00;;
69854;SDS011;57146;48.140;16.304;2023-02-03T04:58:23;0.37;;;0.00;;
69854;SDS011;57146;48.140;16.304;2023-02-03T05:00:50;0.45;;;0.00;;
69854;SDS011;57146;48.140;16.304;2023-02-03T05:03:20;0.43;;;0.00;;
69854;SDS011;57146;48.140;16.304;2023-02-03T05:05:51;0.30;;;0.00;;
69854;SDS011;57146;48.140;16.304;2023-02-03T05:08:18;0.20;;;0.00;;
69854;SDS011;57146;48.140;16.304;2023-02-03T05:10:45;0.50;;;0.00;;
69854;SDS011;57146;48.140;16.304;2023-02-03T05:13:12;0.22;;;0.00;;
69854;SDS011;57146;48.140;16.304;2023-02-03T05:15:41;0.20;;;0.00;;
69854;SDS011;57146;48.140;16.304;2023-02-03T05:18:07;0.50;;;0.00;;
69854;SDS011;57146;48.140;16.304;2023-02-03T05:20:36;0.22;;;0.00;;
69854;SDS011;57146;48.140;16.304;2023-02-03T05:23:27;1.07;;;0.00;;
69854;SDS011;57146;48.140;16.304;2023-02-03T05:25:54;0.45;;;0.00;;
69854;SDS011;57146;48.140;16.304;2023-02-03T05:28:21;0.60;;;0.00;;
69854;SDS011;57146;48.140;16.304;2023-02-03T05:30:48;0.82;;;0.00;;
69854;SDS011;57146;48.140;16.304;2023-02-03T05:33:15;1.35;;;0.00;;
69854;SDS011;57146;48.140;16.304;2023-02-03T05:35:42;0.77;;;0.00;;
69854;SDS011;57146;48.140;16.304;2023-02-03T05:38:09;0.40;;;0.00;;
69854;SDS011;57146;48.140;16.304;2023-02-03T05:41:01;0.40;;;0.00;;
69854;SDS011;57146;48.140;16.304;2023-02-03T05:43:29;0.25;;;0.00;;
69854;SDS011;57146;48.140;16.304;2023-02-03T05:45:58;0.65;;;0.00;;
69854;SDS011;57146;48.140;16.304;2023-02-03T05:48:30;1.10;;;0.00;;
69854;SDS011;57146;48.140;16.304;2023-02-03T05:50:57;0.55;;;0.00;;
69854;SDS011;57146;48.140;16.304;2023-02-03T05:53:25;0.45;;;0.00;;
69854;SDS011;57146;48.140;16.304;2023-02-03T05:55:53;0.43;;;0.00;;
69854;SDS011;57146;48.140;16.304;2023-02-03T05:58:21;1.45;;;0.00;;
69854;SDS011;57146;48.140;16.304;2023-02-03T06:00:48;0.53;;;0.00;;
69854;SDS011;57146;48.140;16.304;2023-02-03T06:03:15;0.75;;;0.00;;
69854;SDS011;57146;48.140;16.304;2023-02-03T06:05:43;0.30;;;0.00;;
69854;SDS011;57146;48.140;16.304;2023-02-03T06:08:10;1.95;;;0.00;;
69854;SDS011;57146;48.140;16.304;2023-02-03T06:10:37;2.15;;;0.00;;
69854;SDS011;57146;48.140;16.304;2023-02-03T06:13:11;0.63;;;0.00;;
69854;SDS011;57146;48.140;16.304;2023-02-03T06:15:41;1.10;;;0.00;;
69854;SDS011;57146;48.140;16.304;2023-02-03T06:18:09;0.60;;;0.00;;
69854;SDS011;57146;48.140;16.304;2023-02-03T06:21:00;0.52;;;0.00;;
69854;SDS011;57146;48.140;16.304;2023-02-03T06:23:28;0.63;;;0.00;;
69854;SDS011;57146;48.140;16.304;2023-02-03T06:25:56;0.40;;;0.00;;
69854;SDS011;57146;48.140;16.304;2023-02-03T06:28:23;0.40;;;0.00;;
69854;SDS011;57146;48.140;16.304;2023-02-03T06:30:50;0.75;;;0.00;;
69854;SDS011;57146;48.140;16.304;2023-02-03T06:33:20;1.17;;;0.00;;
69854;SDS011;57146;48.140;16.304;2023-02-03T06:35:47;1.70;;;0.00;;
69854;SDS011;57146;48.140;16.304;2023-02-03T06:38:18;0.47;;;0.00;;
69854;SDS011;57146;48.140;16.304;2023-02-03T06:40:45;0.63;;;0.00;;
69854;SDS011;57146;48.140;16.304;2023-02-03T06:43:12;0.50;;;0.00;;
69854;SDS011;57146;48.140;16.304;2023-02-03T06:45:40;0.60;;;0.00;;
69854;SDS011;57146;48.140;16.304;2023-02-03T06:48:07;0.88;;;0.00;;
69854;SDS011;57146;48.140;16.304;2023-02-03T06:50:38;0.40;;;0.00;;
69854;SDS011;57146;48.140;16.304;2023-02-03T06:53:05;0.82;;;0.00;;
69854;SDS011;57146;48.140;16.304;2023-02-03T06:55:36;0.47;;;0.00;;
69854;SDS011;57146;48.140;16.304;2023-02-03T06:58:07;1.08;;;0.00;;
69854;SDS011;57146;48.140;16.304;2023-02-03T07:00:34;0.82;;;0.00;;
69854;SDS011;57146;48.140;16.304;2023-02-03T07:03:01;0.60;;;0.00;;
69854;SDS011;57146;48.140;16.304;2023-02-03T07:05:27;0.50;;;0.00;;
69854;SDS011;57146;48.140;16.304;2023-02-03T07:07:54;0.77;;;0.00;;
69854;SDS011;57146;48.140;16.304;2023-02-03T07:10:21;1.00;;;0.00;;
69854;SDS011;57146;48.140;16.304;2023-02-03T07:12:48;0.93;;;0.00;;
69854;SDS011;57146;48.140;16.304;2023-02-03T07:15:15;1.23;;;0.00;;
69854;SDS011;57146;48.140;16.304;2023-02-03T07:17:42;0.50;;;0.00;;
69854;SDS011;57146;48.140;16.304;2023-02-03T07:20:09;1.10;;;0.00;;
69854;SDS011;57146;48.140;16.304;2023-02-03T07:22:36;0.70;;;0.00;;
69854;SDS011;57146;48.140;16.304;2023-02-03T07:25:03;0.80;;;0.00;;
69854;SDS011;57146;48.140;16.304;2023-02-03T07:27:31;1.67;;;0.00;;
69854;SDS011;57146;48.140;16.304;2023-02-03T07:29:57;0.70;;;0.00;;
69854;SDS011;57146;48.140;16.304;2023-02-03T07:32:26;1.55;;;0.00;;
69854;SDS011;57146;48.140;16.304;2023-02-03T07:34:52;0.90;;;0.00;;
69854;SDS011;57146;48.140;16.304;2023-02-03T07:37:19;1.10;;;0.00;;
69854;SDS011;57146;48.140;16.304;2023-02-03T07:39:46;2.10;;;0.00;;
69854;SDS011;57146;48.140;16.304;2023-02-03T07:42:14;0.82;;;0.00;;
69854;SDS011;57146;48.140;16.304;2023-02-03T07:44:44;2.50;;;0.00;;
69854;SDS011;57146;48.140;16.304;2023-02-03T07:47:12;1.40;;;0.00;;
69854;SDS011;57146;48.140;16.304;2023-02-03T07:49:38;1.65;;;0.10;;
69854;SDS011;57146;48.140;16.304;2023-02-03T07:52:06;1.90;;;0.00;;
69854;SDS011;57146;48.140;16.304;2023-02-03T07:54:33;2.03;;;0.00;;
69854;SDS011;57146;48.140;16.304;2023-02-03T07:57:01;2.00;;;0.00;;
69854;SDS011;57146;48.140;16.304;2023-02-03T07:59:32;2.30;;;0.03;;
69854;SDS011;57146;48.140;16.304;2023-02-03T08:01:59;2.45;;;0.10;;
69854;SDS011;57146;48.140;16.304;2023-02-03T08:04:26;1.10;;;0.00;;
69854;SDS011;57146;48.140;16.304;2023-02-03T08:06:54;1.90;;;0.20;;
69854;SDS011;57146;48.140;16.304;2023-02-03T08:09:22;1.67;;;0.10;;
69854;SDS011;57146;48.140;16.304;2023-02-03T08:11:50;2.42;;;0.10;;
69854;SDS011;57146;48.140;16.304;2023-02-03T08:14:17;2.60;;;0.03;;
69854;SDS011;57146;48.140;16.304;2023-02-03T08:16:49;2.80;;;0.00;;
69854;SDS011;57146;48.140;16.304;2023-02-03T08:19:16;1.20;;;0.00;;
69854;SDS011;57146;48.140;16.304;2023-02-03T08:21:43;1.63;;;0.00;;
69854;SDS011;57146;48.140;16.304;2023-02-03T08:24:10;1.40;;;0.00;;
69854;SDS011;57146;48.140;16.304;2023-02-03T08:26:36;1.30;;;0.00;;
69854;SDS011;57146;48.140;16.304;2023-02-03T08:29:03;1.90;;;0.10;;
69854;SDS011;57146;48.140;16.304;2023-02-03T08:31:30;1.92;;;0.00;;
69854;SDS011;57146;48.140;16.304;2023-02-03T08:33:57;1.13;;;0.00;;
69854;SDS011;57146;48.140;16.304;2023-02-03T08:36:25;1.77;;;0.00;;
69854;SDS011;57146;48.140;16.304;2023-02-03T08:39:08;1.77;;;0.00;;
69854;SDS011;57146;48.140;16.304;2023-02-03T08:41:37;1.33;;;0.00;;
69854;SDS011;57146;48.140;16.304;2023-02-03T08:44:05;1.10;;;0.00;;
69854;SDS011;57146;48.140;16.304;2023-02-03T08:46:31;1.55;;;0.00;;
69854;SDS011;57146;48.140;16.304;2023-02-03T08:48:59;2.00;;;0.00;;
69854;SDS011;57146;48.140;16.304;2023-02-03T08:51:27;1.45;;;0.00;;
69854;SDS011;57146;48.140;16.304;2023-02-03T08:53:54;1.90;;;0.10;;
69854;SDS011;57146;48.140;16.304;2023-02-03T08:56:22;1.35;;;0.00;;
69854;SDS011;57146;48.140;16.304;2023-02-03T08:58:48;2.40;;;0.10;;
69854;SDS011;57146;48.140;16.304;2023-02-03T09:01:15;1.33;;;0.10;;
69854;SDS011;57146;48.140;16.304;2023-02-03T09:03:42;1.98;;;0.10;;
69854;SDS011;57146;48.140;16.304;2023-02-03T09:06:09;2.37;;;0.00;;
69854;SDS011;57146;48.140;16.304;2023-02-03T09:08:36;1.75;;;0.00;;
69854;SDS011;57146;48.140;16.304;2023-02-03T09:11:07;2.40;;;0.00;;
69854;SDS011;57146;48.140;16.304;2023-02-03T09:13:36;2.55;;;0.35;;
69854;SDS011;57146;48.140;16.304;2023-02-03T09:16:06;3.28;;;0.00;;
69854;SDS011;57146;48.140;16.304;2023-02-03T09:18:34;2.50;;;0.00;;
69854;SDS011;57146;48.140;16.304;2023-02-03T09:21:05;1.70;;;0.00;;
69854;SDS011;57146;48.140;16.304;2023-02-03T09:23:33;1.88;;;0.00;;
69854;SDS011;57146;48.140;16.304;2023-02-03T09:26:03;1.20;;;0.00;;
69854;SDS011;57146;48.140;16.304;2023-02-03T09:28:32;2.63;;;0.00;;
69854;SDS011;57146;48.140;16.304;2023-02-03T09:31:03;1.23;;;0.00;;
69854;SDS011;57146;48.140;16.304;2023-02-03T09:33:40;1.00;;;0.00;;
69854;SDS011;57146;48.140;16.304;2023-02-03T09:36:07;1.38;;;0.00;;
69854;SDS011;57146;48.140;16.304;2023-02-03T09:38:34;1.10;;;0.00;;
69854;SDS011;57146;48.140;16.304;2023-02-03T09:41:02;0.70;;;0.00;;
69854;SDS011;57146;48.140;16.304;2023-02-03T09:43:42;1.40;;;0.00;;
69854;SDS011;57146;48.140;16.304;2023-02-03T09:46:17;3.05;;;0.10;;
69854;SDS011;57146;48.140;16.304;2023-02-03T09:48:49;1.23;;;0.00;;
69854;SDS011;57146;48.140;16.304;2023-02-03T09:51:31;2.30;;;0.00;;
69854;SDS011;57146;48.140;16.304;2023-02-03T09:54:30;0.73;;;0.00;;
69854;SDS011;57146;48.140;16.304;2023-02-03T09:57:11;0.67;;;0.00;;
69854;SDS011;57146;48.140;16.304;2023-02-03T09:59:44;6.75;;;0.00;;
69854;SDS011;57146;48.140;16.304;2023-02-03T10:07:52;0.93;;;0.00;;
69854;SDS011;57146;48.140;16.304;2023-02-03T10:13:14;1.20;;;0.00;;
69854;SDS011;57146;48.140;16.304;2023-02-03T10:15:57;1.17;;;0.00;;
69854;SDS011;57146;48.140;16.304;2023-02-03T10:18:32;1.45;;;0.00;;
69854;SDS011;57146;48.140;16.304;2023-02-03T10:21:16;1.00;;;0.00;;
69854;SDS011;57146;48.140;16.304;2023-02-03T10:24:08;1.47;;;0.00;;
69854;SDS011;57146;48.140;16.304;2023-02-03T10:27:16;0.70;;;0.00;;
69854;SDS011;57146;48.140;16.304;2023-02-03T10:29:53;1.83;;;0.00;;
69854;SDS011;57146;48.140;16.304;2023-02-03T10:32:56;1.10;;;0.00;;
69854;SDS011;57146;48.140;16.304;2023-02-03T10:35:44;1.83;;;0.00;;
69854;SDS011;57146;48.140;16.304;2023-02-03T10:41:47;1.42;;;0.00;;
69854;SDS011;57146;48.140;16.304;2023-02-03T10:44:14;0.95;;;0.00;;
69854;SDS011;57146;48.140;16.304;2023-02-03T10:46:42;0.98;;;0.00;;
69854;SDS011;57146;48.140;16.304;2023-02-03T10:49:11;3.15;;;0.10;;
69854;SDS011;57146;48.140;16.304;2023-02-03T10:51:47;2.43;;;0.00;;
69854;SDS011;57146;48.140;16.304;2023-02-03T10:54:29;1.65;;;0.00;;
69854;SDS011;57146;48.140;16.304;2023-02-03T10:57:04;1.92;;;0.00;;
69854;SDS011;57146;48.140;16.304;2023-02-03T10:59:37;0.73;;;0.00;;
69854;SDS011;57146;48.140;16.304;2023-02-03T11:02:33;1.77;;;0.00;;
69854;SDS011;57146;48.140;16.304;2023-02-03T11:05:21;1.10;;;0.00;;
69854;SDS011;57146;48.140;16.304;2023-02-03T11:07:48;1.02;;;0.00;;
69854;SDS011;57146;48.140;16.304;2023-02-03T11:10:35;0.82;;;0.00;;
69854;SDS011;57146;48.140;16.304;2023-02-03T11:13:20;1.45;;;0.00;;
69854;SDS011;57146;48.140;16.304;2023-02-03T11:26:36;1.00;;;0.00;;
69854;SDS011;57146;48.140;16.304;2023-02-03T11:29:15;0.70;;;0.00;;
69854;SDS011;57146;48.140;16.304;2023-02-03T11:31:45;1.17;;;0.00;;
69854;SDS011;57146;48.140;16.304;2023-02-03T11:34:16;1.00;;;0.00;;
69854;SDS011;57146;48.140;16.304;2023-02-03T11:36:51;2.30;;;0.00;;
69854;SDS011;57146;48.140;16.304;2023-02-03T11:41:54;1.00;;;0.00;;
69854;SDS011;57146;48.140;16.304;2023-02-03T11:44:22;1.60;;;0.00;;
69854;SDS011;57146;48.140;16.304;2023-02-03T11:46:53;1.70;;;0.00;;
69854;SDS011;57146;48.140;16.304;2023-02-03T11:49:37;0.98;;;0.00;;
69854;SDS011;57146;48.140;16.304;2023-02-03T11:55:24;2.95;;;0.10;;
69854;SDS011;57146;48.140;16.304;2023-02-03T12:01:25;0.70;;;0.00;;
69854;SDS011;57146;48.140;16.304;2023-02-03T12:07:33;0.68;;;0.00;;
69854;SDS011;57146;48.140;16.304;2023-02-03T12:21:45;0.70;;;0.00;;
69854;SDS011;57146;48.140;16.304;2023-02-03T12:30:09;1.40;;;0.00;;
69854;SDS011;57146;48.140;16.304;2023-02-03T12:32:47;3.65;;;0.00;;
69854;SDS011;57146;48.140;16.304;2023-02-03T12:35:20;1.65;;;0.00;;
69854;SDS011;57146;48.140;16.304;2023-02-03T12:38:30;0.88;;;0.00;;
69854;SDS011;57146;48.140;16.304;2023-02-03T12:41:55;1.20;;;0.00;;
69854;SDS011;57146;48.140;16.304;2023-02-03T12:45:00;0.68;;;0.00;;
69854;SDS011;57146;48.140;16.304;2023-02-03T12:48:01;1.08;;;0.00;;
69854;SDS011;57146;48.140;16.304;2023-02-03T12:50:39;1.67;;;0.00;;
69854;SDS011;57146;48.140;16.304;2023-02-03T12:55:44;0.60;;;0.00;;
69854;SDS011;57146;48.140;16.304;2023-02-03T12:58:25;0.75;;;0.00;;
69854;SDS011;57146;48.140;16.304;2023-02-03T13:01:00;0.40;;;0.00;;
69854;SDS011;57146;48.140;16.304;2023-02-03T13:03:37;1.88;;;0.00;;
69854;SDS011;57146;48.140;16.304;2023-02-03T13:09:51;0.50;;;0.00;;
69854;SDS011;57146;48.140;16.304;2023-02-03T13:12:49;0.45;;;0.00;;
69854;SDS011;57146;48.140;16.304;2023-02-03T13:15:46;1.08;;;0.00;;
69854;SDS011;57146;48.140;16.304;2023-02-03T13:18:35;1.10;;;0.00;;
69854;SDS011;57146;48.140;16.304;2023-02-03T13:21:07;0.47;;;0.00;;
69854;SDS011;57146;48.140;16.304;2023-02-03T13:23:40;1.30;;;0.00;;
69854;SDS011;57146;48.140;16.304;2023-02-03T13:42:23;1.10;;;0.00;;
69854;SDS011;57146;48.140;16.304;2023-02-03T13:44:57;0.95;;;0.00;;
69854;SDS011;57146;48.140;16.304;2023-02-03T13:47:45;0.52;;;0.00;;
69854;SDS011;57146;48.140;16.304;2023-02-03T13:50:22;1.30;;;0.00;;
69854;SDS011;57146;48.140;16.304;2023-02-03T13:55:25;0.75;;;0.00;;
69854;SDS011;57146;48.140;16.304;2023-02-03T13:57:54;1.63;;;0.00;;
69854;SDS011;57146;48.140;16.304;2023-02-03T14:05:57;1.52;;;0.00;;
69854;SDS011;57146;48.140;16.304;2023-02-03T14:16:35;2.37;;;0.00;;
69854;SDS011;57146;48.140;16.304;2023-02-03T14:19:08;0.70;;;0.00;;
69854;SDS011;57146;48.140;16.304;2023-02-03T14:21:47;1.10;;;0.00;;
69854;SDS011;57146;48.140;16.304;2023-02-03T14:24:19;0.77;;;0.00;;
69854;SDS011;57146;48.140;16.304;2023-02-03T14:26:51;0.90;;;0.00;;
69854;SDS011;57146;48.140;16.304;2023-02-03T14:29:34;1.63;;;0.00;;
69854;SDS011;57146;48.140;16.304;2023-02-03T14:32:04;0.88;;;0.00;;
69854;SDS011;57146;48.140;16.304;2023-02-03T14:34:36;1.27;;;0.00;;
69854;SDS011;57146;48.140;16.304;2023-02-03T14:42:52;1.03;;;0.00;;
69854;SDS011;57146;48.140;16.304;2023-02-03T14:52:04;1.42;;;0.00;;
69854;SDS011;57146;48.140;16.304;2023-02-03T14:58:00;0.83;;;0.00;;
69854;SDS011;57146;48.140;16.304;2023-02-03T15:00:55;1.67;;;0.00;;
69854;SDS011;57146;48.140;16.304;2023-02-03T15:03:22;1.02;;;0.00;;
69854;SDS011;57146;48.140;16.304;2023-02-03T15:05:55;1.67;;;0.00;;
69854;SDS011;57146;48.140;16.304;2023-02-03T15:08:36;1.63;;;0.00;;
69854;SDS011;57146;48.140;16.304;2023-02-03T15:11:22;1.07;;;0.10;;
69854;SDS011;57146;48.140;16.304;2023-02-03T15:13:56;1.05;;;0.00;;
69854;SDS011;57146;48.140;16.304;2023-02-03T15:17:21;1.48;;;0.00;;
69854;SDS011;57146;48.140;16.304;2023-02-03T15:19:56;1.15;;;0.00;;
69854;SDS011;57146;48.140;16.304;2023-02-03T15:22:49;2.03;;;0.00;;
69854;SDS011;57146;48.140;16.304;2023-02-03T15:25:16;0.80;;;0.00;;
69854;SDS011;57146;48.140;16.304;2023-02-03T15:27:44;1.20;;;0.10;;
69854;SDS011;57146;48.140;16.304;2023-02-03T15:30:16;1.52;;;0.00;;
69854;SDS011;57146;48.140;16.304;2023-02-03T15:32:47;0.43;;;0.00;;
69854;SDS011;57146;48.140;16.304;2023-02-03T15:35:52;1.70;;;0.00;;
69854;SDS011;57146;48.140;16.304;2023-02-03T15:38:30;1.60;;;0.00;;
69854;SDS011;57146;48.140;16.304;2023-02-03T15:41:05;1.60;;;0.00;;
69854;SDS011;57146;48.140;16.304;2023-02-03T15:43:41;1.08;;;0.00;;
69854;SDS011;57146;48.140;16.304;2023-02-03T15:49:22;0.70;;;0.00;;
69854;SDS011;57146;48.140;16.304;2023-02-03T15:51:51;0.50;;;0.00;;
69854;SDS011;57146;48.140;16.304;2023-02-03T15:55:02;0.90;;;0.00;;
69854;SDS011;57146;48.140;16.304;2023-02-03T15:57:44;0.68;;;0.00;;
69854;SDS011;57146;48.140;16.304;2023-02-03T16:03:32;1.52;;;0.00;;
69854;SDS011;57146;48.140;16.304;2023-02-03T16:06:08;0.70;;;0.00;;
69854;SDS011;57146;48.140;16.304;2023-02-03T16:08:46;1.00;;;0.00;;
69854;SDS011;57146;48.140;16.304;2023-02-03T16:11:24;1.08;;;0.00;;
69854;SDS011;57146;48.140;16.304;2023-02-03T16:14:07;1.27;;;0.00;;
69854;SDS011;57146;48.140;16.304;2023-02-03T16:16:41;1.08;;;0.00;;
69854;SDS011;57146;48.140;16.304;2023-02-03T16:19:30;1.47;;;0.00;;
69854;SDS011;57146;48.140;16.304;2023-02-03T16:21:58;0.68;;;0.00;;
69854;SDS011;57146;48.140;16.304;2023-02-03T16:32:30;0.60;;;0.00;;
69854;SDS011;57146;48.140;16.304;2023-02-03T16:34:57;1.63;;;0.00;;
69854;SDS011;57146;48.140;16.304;2023-02-03T16:37:49;0.63;;;0.00;;
69854;SDS011;57146;48.140;16.304;2023-02-03T16:40:21;0.68;;;0.00;;
69854;SDS011;57146;48.140;16.304;2023-02-03T16:42:53;1.10;;;0.00;;
69854;SDS011;57146;48.140;16.304;2023-02-03T16:45:23;0.87;;;0.00;;
69854;SDS011;57146;48.140;16.304;2023-02-03T16:47:54;1.95;;;0.00;;
69854;SDS011;57146;48.140;16.304;2023-02-03T16:50:46;0.95;;;0.00;;
69854;SDS011;57146;48.140;16.304;2023-02-03T16:53:14;0.73;;;0.00;;
69854;SDS011;57146;48.140;16.304;2023-02-03T16:55:43;1.02;;;0.00;;
69854;SDS011;57146;48.140;16.304;2023-02-03T16:58:12;0.80;;;0.00;;
69854;SDS011;57146;48.140;16.304;2023-02-03T17:00:42;2.05;;;0.00;;
69854;SDS011;57146;48.140;16.304;2023-02-03T17:03:15;1.20;;;0.00;;
69854;SDS011;57146;48.140;16.304;2023-02-03T17:05:49;0.80;;;0.00;;
69854;SDS011;57146;48.140;16.304;2023-02-03T17:08:18;1.08;;;0.00;;
69854;SDS011;57146;48.140;16.304;2023-02-03T17:11:13;1.70;;;0.00;;
69854;SDS011;57146;48.140;16.304;2023-02-03T17:13:42;1.10;;;0.00;;
69854;SDS011;57146;48.140;16.304;2023-02-03T17:16:10;0.60;;;0.00;;
69854;SDS011;57146;48.140;16.304;2023-02-03T17:18:40;1.67;;;0.00;;
69854;SDS011;57146;48.140;16.304;2023-02-03T17:21:10;0.98;;;0.00;;
69854;SDS011;57146;48.140;16.304;2023-02-03T17:23:39;1.23;;;0.00;;
69854;SDS011;57146;48.140;16.304;2023-02-03T17:26:06;1.50;;;0.00;;
69854;SDS011;57146;48.140;16.304;2023-02-03T17:28:35;2.25;;;0.30;;
69854;SDS011;57146;48.140;16.304;2023-02-03T17:31:05;0.68;;;0.00;;
69854;SDS011;57146;48.140;16.304;2023-02-03T17:33:33;1.52;;;0.00;;
69854;SDS011;57146;48.140;16.304;2023-02-03T17:36:05;1.33;;;0.00;;
69854;SDS011;57146;48.140;16.304;2023-02-03T17:38:41;0.88;;;0.00;;